Time;durP1;ratioP1;P1;durP2;ratioP2;P2;SDS_P1;SDS_P2;PMS_P1;PMS_P2;Temp;Humidity;BMP_temperature;BMP_pressure;BME280_temperature;BME280_humidity;BME280_pressure;Samples;Min_cycle;Max_cycle;Signal;HPM_P1;HPM_P2
2022/08/06 00:00:13;;;;;;;5.95;1.55;;;;;;;26.01;44.63;101237.53;4805354;29;20035;-56
2022/08/06 00:02:40;;;;;;;3.05;1.58;;;;;;;26.01;44.39;101245.78;4804722;29;20027;-57
2022/08/06 00:05:06;;;;;;;3.35;1.85;;;;;;;25.78;44.52;101249.44;4808869;29;20389;-56
2022/08/06 00:07:34;;;;;;;4.80;1.92;;;;;;;25.39;44.50;101252.47;4823481;29;20507;-56
2022/08/06 00:10:01;;;;;;;5.38;1.65;;;;;;;25.45;45.05;101256.75;4822728;29;20463;-56
2022/08/06 00:12:31;;;;;;;2.10;1.08;;;;;;;25.37;45.27;101255.47;4822961;29;20396;-56
2022/08/06 00:14:58;;;;;;;4.93;1.75;;;;;;;25.43;44.72;101251.59;4823504;29;20037;-57
2022/08/06 00:17:25;;;;;;;5.00;1.58;;;;;;;25.50;45.22;101254.75;4823579;29;20045;-57
2022/08/06 00:19:51;;;;;;;3.92;1.60;;;;;;;25.53;44.79;101254.16;4823544;29;20053;-56
2022/08/06 00:22:18;;;;;;;5.45;1.55;;;;;;;25.14;45.24;101256.34;4823167;29;20042;-56
2022/08/06 00:24:45;;;;;;;3.67;1.30;;;;;;;25.11;45.78;101252.28;4823284;29;20118;-56
2022/08/06 00:27:11;;;;;;;3.63;1.40;;;;;;;25.08;46.01;101263.81;4823169;29;20038;-56
2022/08/06 00:29:37;;;;;;;5.28;2.05;;;;;;;24.79;47.23;101261.13;4823256;29;20026;-56
2022/08/06 00:32:03;;;;;;;4.82;1.50;;;;;;;24.80;46.98;101259.19;4823148;29;20515;-57
2022/08/06 00:34:30;;;;;;;2.70;1.40;;;;;;;24.77;47.41;101260.63;4823007;29;20155;-56
2022/08/06 00:36:56;;;;;;;3.72;1.45;;;;;;;24.85;47.16;101259.94;4823230;29;20488;-56
2022/08/06 00:39:23;;;;;;;4.22;1.80;;;;;;;24.87;46.85;101265.94;4817468;29;20035;-56
2022/08/06 00:41:49;;;;;;;4.30;1.10;;;;;;;24.85;46.46;101259.16;4822457;29;20038;-56
2022/08/06 00:44:15;;;;;;;3.05;1.30;;;;;;;24.70;46.62;101271.06;4823014;29;20057;-56
2022/08/06 00:46:43;;;;;;;3.13;1.40;;;;;;;24.52;47.23;101266.34;4822986;29;20384;-56
2022/08/06 00:49:10;;;;;;;4.07;1.73;;;;;;;24.39;47.99;101263.19;4820099;29;20034;-57
2022/08/06 00:51:36;;;;;;;5.40;1.83;;;;;;;24.46;47.54;101263.66;4812266;29;20065;-57
2022/08/06 00:54:02;;;;;;;3.70;1.70;;;;;;;24.37;46.96;101261.81;4804304;29;20047;-57
2022/08/06 00:56:28;;;;;;;7.90;1.85;;;;;;;24.15;48.52;101262.25;4807071;29;20038;-57
2022/08/06 00:58:54;;;;;;;7.38;2.05;;;;;;;23.89;49.60;101267.97;4812739;29;20099;-57
2022/08/06 01:01:21;;;;;;;2.45;1.52;;;;;;;23.88;49.56;101258.13;4821290;29;20399;-57
2022/08/06 01:03:47;;;;;;;3.58;1.55;;;;;;;23.61;49.69;101269.47;4816236;29;20050;-56
2022/08/06 01:06:13;;;;;;;4.63;1.90;;;;;;;23.61;50.20;101268.66;4818090;29;20031;-57
2022/08/06 01:08:40;;;;;;;4.03;2.05;;;;;;;23.57;50.50;101257.47;4809457;29;20370;-56
2022/08/06 01:11:06;;;;;;;4.45;1.88;;;;;;;23.68;49.83;101258.25;4805383;29;20097;-56
2022/08/06 01:13:32;;;;;;;4.75;2.28;;;;;;;23.55;50.12;101262.41;4820314;29;20046;-57
2022/08/06 01:16:12;;;;;;;7.43;2.33;;;;;;;23.41;50.67;101256.75;4808817;29;20450;-56
2022/08/06 01:18:59;;;;;;;4.63;1.80;;;;;;;23.30;50.92;101257.09;4804409;29;20081;-56
2022/08/06 01:21:54;;;;;;;6.22;2.30;;;;;;;23.13;51.26;101257.44;4805570;29;20117;-56
2022/08/06 01:24:34;;;;;;;5.43;2.13;;;;;;;22.91;51.94;101249.59;4807544;29;20100;-56
2022/08/06 01:27:18;;;;;;;8.98;2.13;;;;;;;23.04;51.43;101249.03;4808588;29;20117;-57
2022/08/06 01:29:51;;;;;;;6.37;2.00;;;;;;;22.90;51.60;101243.34;4808328;29;20042;-57
2022/08/06 01:32:30;;;;;;;4.57;2.42;;;;;;;22.66;52.25;101248.56;4825851;29;20122;-57
2022/08/06 01:35:20;;;;;;;6.97;2.05;;;;;;;22.69;52.36;101244.47;4825918;29;20075;-57
2022/08/06 01:38:00;;;;;;;4.00;1.90;;;;;;;22.53;52.82;101249.13;4825660;29;20019;-57
2022/08/06 01:40:32;;;;;;;3.33;1.73;;;;;;;22.30;53.62;101252.44;4825646;29;20167;-56
2022/08/06 01:43:00;;;;;;;4.82;1.77;;;;;;;22.41;53.60;101245.88;4822168;29;20026;-56
2022/08/06 01:45:29;;;;;;;5.35;1.80;;;;;;;22.31;53.44;101252.16;4815262;29;20046;-54
2022/08/06 01:48:01;;;;;;;4.88;1.88;;;;;;;21.98;54.76;101248.06;4841493;24;20055;-55
2022/08/06 01:50:37;;;;;;;3.78;2.17;;;;;;;22.01;54.87;101243.97;4843327;29;20471;-54
2022/08/06 01:53:07;;;;;;;2.72;1.83;;;;;;;21.98;55.20;101247.25;4842517;29;20058;-55
2022/08/06 01:55:43;;;;;;;5.18;2.08;;;;;;;21.78;55.52;101248.88;4843136;29;20533;-55
2022/08/06 01:58:11;;;;;;;5.15;2.17;;;;;;;21.96;55.57;101249.44;4840616;29;20029;-55
2022/08/06 02:00:44;;;;;;;6.43;2.65;;;;;;;21.82;56.34;101246.41;4843708;29;20120;-55
2022/08/06 02:03:22;;;;;;;4.13;2.13;;;;;;;21.69;56.39;101255.13;4843385;29;20109;-56
2022/08/06 02:05:51;;;;;;;4.15;2.20;;;;;;;21.55;56.59;101254.84;4843194;29;20086;-55
2022/08/06 02:08:20;;;;;;;6.10;1.95;;;;;;;21.37;57.28;101258.03;4843487;29;20038;-55
2022/08/06 02:10:48;;;;;;;6.10;1.95;;;;;;;21.25;57.12;101259.06;4827064;29;20030;-56
2022/08/06 02:13:16;;;;;;;4.68;2.15;;;;;;;21.28;57.41;101255.81;4843177;29;20038;-55
2022/08/06 02:15:44;;;;;;;3.85;2.05;;;;;;;21.18;57.26;101261.22;4842551;29;20029;-56
2022/08/06 02:18:14;;;;;;;4.60;1.73;;;;;;;21.10;57.39;101264.47;4825449;29;20034;-56
2022/08/06 02:20:45;;;;;;;4.85;1.80;;;;;;;21.02;57.61;101254.88;4824835;29;20042;-56
2022/08/06 02:23:16;;;;;;;3.08;1.33;;;;;;;20.82;57.85;101255.63;4824731;29;20031;-55
2022/08/06 02:25:45;;;;;;;3.10;1.65;;;;;;;20.75;58.21;101255.03;4824843;29;20102;-55
2022/08/06 02:28:14;;;;;;;5.32;1.67;;;;;;;20.78;58.30;101251.78;4825033;29;20125;-56
2022/08/06 02:30:46;;;;;;;2.58;1.20;;;;;;;20.75;58.56;101268.63;4824746;29;20065;-55
2022/08/06 02:33:13;;;;;;;4.43;1.27;;;;;;;20.71;58.16;101272.97;4824089;29;20083;-56
2022/08/06 02:35:46;;;;;;;1.90;1.15;;;;;;;20.59;58.73;101277.78;4824773;29;20096;-55
2022/08/06 02:38:37;;;;;;;1.65;1.48;;;;;;;20.49;59.31;101275.84;4824876;29;20041;-55
2022/08/06 02:41:17;;;;;;;1.95;1.42;;;;;;;20.44;59.20;101274.94;4806945;29;20054;-56
2022/08/06 02:44:03;;;;;;;5.10;1.25;;;;;;;20.63;58.80;101276.19;4806299;29;20042;-56
2022/08/06 02:46:38;;;;;;;2.65;1.52;;;;;;;20.49;59.01;101284.00;4806775;29;20059;-56
2022/08/06 02:49:12;;;;;;;4.60;1.60;;;;;;;20.52;59.38;101282.63;4806782;29;20035;-56
2022/08/06 02:51:44;;;;;;;2.60;1.30;;;;;;;20.40;59.78;101284.69;4806245;29;20512;-56
2022/08/06 02:54:31;;;;;;;2.15;1.10;;;;;;;20.43;59.43;101289.59;4823293;29;20380;-55
2022/08/06 02:57:02;;;;;;;2.03;1.40;;;;;;;20.50;59.30;101292.97;4824450;29;20058;-56
2022/08/06 02:59:32;;;;;;;3.00;1.42;;;;;;;20.29;60.15;101290.06;4822778;29;20026;-56
2022/08/06 03:02:01;;;;;;;4.20;1.60;;;;;;;20.31;60.44;101292.50;4822187;29;20487;-55
2022/08/06 03:04:30;;;;;;;2.35;1.20;;;;;;;20.36;60.48;101289.81;4814470;29;20076;-56
2022/08/06 03:07:00;;;;;;;2.80;1.30;;;;;;;20.30;60.48;101286.25;4822513;29;20453;-56
2022/08/06 03:09:26;;;;;;;2.90;1.27;;;;;;;20.27;60.66;101296.84;4823755;29;20041;-56
2022/08/06 03:11:53;;;;;;;5.07;1.50;;;;;;;20.17;61.23;101286.69;4823139;29;20026;-55
2022/08/06 03:14:21;;;;;;;2.95;1.63;;;;;;;20.05;61.84;101296.91;4824250;29;20034;-55
2022/08/06 03:16:48;;;;;;;2.58;1.30;;;;;;;19.99;62.11;101298.78;4823474;29;20514;-56
2022/08/06 03:19:15;;;;;;;2.38;1.58;;;;;;;19.91;62.50;101285.63;4824097;29;20109;-56
2022/08/06 03:21:44;;;;;;;3.72;1.80;;;;;;;20.02;62.14;101294.69;4823834;29;20392;-56
2022/08/06 03:24:13;;;;;;;4.38;1.50;;;;;;;19.87;62.61;101289.13;4824213;29;20480;-56
2022/08/06 03:26:41;;;;;;;4.47;1.75;;;;;;;19.92;62.19;101286.44;4824181;29;20120;-56
2022/08/06 03:29:09;;;;;;;2.42;1.50;;;;;;;19.90;61.89;101288.63;4827416;29;20034;-56
2022/08/06 03:31:36;;;;;;;5.57;1.60;;;;;;;19.99;61.65;101292.53;4841938;29;20069;-56
2022/08/06 03:34:05;;;;;;;3.72;1.25;;;;;;;19.89;62.00;101281.56;4841818;29;20118;-56
2022/08/06 03:36:34;;;;;;;3.10;1.60;;;;;;;19.82;61.85;101291.78;4841961;29;20029;-56
2022/08/06 03:39:06;;;;;;;3.30;1.75;;;;;;;19.79;62.52;101298.56;4822178;29;20392;-56
2022/08/06 03:41:36;;;;;;;3.40;1.17;;;;;;;19.76;62.62;101294.44;4805446;29;20035;-56
2022/08/06 03:44:03;;;;;;;2.63;1.17;;;;;;;19.81;62.05;101301.81;4817817;29;20054;-56
2022/08/06 03:46:42;;;;;;;3.42;1.42;;;;;;;19.83;62.68;101298.88;4828213;29;20042;-56
2022/08/06 03:49:18;;;;;;;4.30;1.70;;;;;;;19.67;63.17;101298.72;4834612;29;20038;-56
2022/08/06 03:51:47;;;;;;;6.05;1.60;;;;;;;19.52;64.10;101306.66;4820848;29;20038;-56
2022/08/06 03:54:15;;;;;;;3.60;1.60;;;;;;;19.58;64.18;101302.91;4823454;29;20042;-56
2022/08/06 03:56:44;;;;;;;4.53;1.92;;;;;;;19.73;63.78;101307.72;4823135;29;20026;-56
2022/08/06 03:59:13;;;;;;;8.35;1.73;;;;;;;19.66;63.65;101309.84;4823846;29;20034;-56
2022/08/06 04:01:43;;;;;;;4.70;1.27;;;;;;;19.49;63.97;101315.31;4823201;29;20463;-56
2022/08/06 04:04:10;;;;;;;5.57;1.30;;;;;;;19.72;63.17;101314.25;4821741;29;20030;-56
2022/08/06 04:06:36;;;;;;;3.38;1.30;;;;;;;19.52;63.85;101315.63;4805142;29;20476;-56
2022/08/06 04:09:06;;;;;;;3.97;1.20;;;;;;;19.41;64.47;101319.28;4811279;29;20105;-56
2022/08/06 04:11:32;;;;;;;3.03;1.70;;;;;;;19.34;64.01;101323.28;4822980;29;20090;-56
2022/08/06 04:13:59;;;;;;;1.27;1.05;;;;;;;19.44;63.95;101324.22;4823413;29;20038;-56
2022/08/06 04:16:26;;;;;;;3.28;1.30;;;;;;;19.51;63.64;101338.41;4823432;29;20459;-56
2022/08/06 04:18:55;;;;;;;2.53;1.30;;;;;;;19.40;64.29;101327.69;4823131;29;20065;-56
2022/08/06 04:21:24;;;;;;;4.97;1.55;;;;;;;19.43;64.38;101346.16;4822662;29;20040;-56
2022/08/06 04:23:51;;;;;;;5.45;1.65;;;;;;;19.41;64.08;101348.31;4823256;29;20036;-56
2022/08/06 04:26:22;;;;;;;3.17;1.27;;;;;;;19.47;64.23;101350.03;4819667;29;20030;-56
2022/08/06 04:28:55;;;;;;;2.03;1.10;;;;;;;19.31;64.32;101357.16;4823044;29;20029;-56
2022/08/06 04:31:22;;;;;;;2.33;1.10;;;;;;;19.48;63.91;101363.34;4820017;29;20069;-56
2022/08/06 04:33:51;;;;;;;2.88;1.20;;;;;;;19.51;63.37;101365.56;4820927;29;20457;-56
2022/08/06 04:36:19;;;;;;;3.38;1.45;;;;;;;19.57;63.01;101369.16;4817954;29;20079;-56
2022/08/06 04:38:46;;;;;;;3.33;1.33;;;;;;;19.32;64.08;101371.53;4819682;29;20105;-56
2022/08/06 04:41:13;;;;;;;1.48;1.00;;;;;;;19.40;64.04;101373.84;4822998;29;20395;-56
2022/08/06 04:43:40;;;;;;;2.50;1.15;;;;;;;19.31;64.20;101378.88;4821481;29;20065;-55
2022/08/06 04:46:08;;;;;;;3.22;1.40;;;;;;;19.31;64.31;101378.06;4822046;29;20034;-56
2022/08/06 04:48:35;;;;;;;2.75;0.95;;;;;;;19.35;64.37;101385.44;4822009;29;20500;-56
2022/08/06 04:51:06;;;;;;;2.83;1.30;;;;;;;19.46;64.23;101387.22;4822987;29;20451;-56
2022/08/06 04:53:39;;;;;;;5.05;1.20;;;;;;;19.30;65.13;101381.84;4821430;29;20103;-56
2022/08/06 04:56:07;;;;;;;2.90;1.30;;;;;;;19.26;64.96;101387.75;4821495;29;20388;-56
2022/08/06 04:58:34;;;;;;;6.20;0.95;;;;;;;19.32;65.11;101385.13;4827344;29;20388;-56
2022/08/06 05:01:01;;;;;;;2.45;1.15;;;;;;;19.32;65.54;101385.97;4826177;29;20441;-56
2022/08/06 05:03:28;;;;;;;2.33;1.52;;;;;;;19.32;65.58;101395.97;4826466;29;20105;-56
2022/08/06 05:06:09;;;;;;;3.35;1.42;;;;;;;18.95;66.77;101396.53;4823560;29;20041;-56
2022/08/06 05:08:40;;;;;;;7.55;1.52;;;;;;;19.06;66.70;101405.66;4828624;29;20034;-56
2022/08/06 05:11:13;;;;;;;1.80;1.00;;;;;;;19.16;66.58;101398.50;4831358;29;20022;-56
2022/08/06 05:13:43;;;;;;;3.03;1.25;;;;;;;19.15;66.01;101391.41;4831635;29;20042;-56
2022/08/06 05:16:12;;;;;;;1.98;0.90;;;;;;;19.17;66.09;101399.31;4825063;29;20045;-56
2022/08/06 05:18:51;;;;;;;2.15;1.10;;;;;;;19.20;66.12;101387.94;4827699;29;20030;-56
2022/08/06 05:21:23;;;;;;;1.13;0.80;;;;;;;19.16;66.07;101395.78;4827423;29;20027;-56
2022/08/06 05:23:53;;;;;;;1.63;0.90;;;;;;;19.08;66.53;101398.09;4828953;29;20504;-56
2022/08/06 05:26:21;;;;;;;3.58;1.10;;;;;;;19.02;66.62;101399.91;4826902;29;20055;-56
2022/08/06 05:28:47;;;;;;;2.80;1.13;;;;;;;19.03;66.54;101406.16;4828510;29;20048;-56
2022/08/06 05:31:14;;;;;;;2.25;1.20;;;;;;;19.07;66.68;101397.25;4826494;29;20122;-56
2022/08/06 05:33:41;;;;;;;2.22;1.23;;;;;;;19.06;66.52;101403.78;4828161;29;20458;-56
2022/08/06 05:36:10;;;;;;;3.65;1.20;;;;;;;19.04;67.06;101397.75;4827356;29;20109;-56
2022/08/06 05:38:39;;;;;;;2.50;1.40;;;;;;;18.91;67.41;101406.25;4827068;29;20509;-56
2022/08/06 05:41:10;;;;;;;3.03;0.95;;;;;;;18.95;67.17;101408.22;4825194;29;20094;-56
2022/08/06 05:43:38;;;;;;;2.40;1.10;;;;;;;18.93;67.23;101415.78;4827867;29;20035;-56
2022/08/06 05:46:09;;;;;;;3.83;0.90;;;;;;;18.95;66.74;101412.81;4837582;29;20030;-56
2022/08/06 05:48:41;;;;;;;1.58;0.98;;;;;;;18.83;67.19;101412.09;4834982;29;20432;-56
2022/08/06 05:51:25;;;;;;;2.08;0.93;;;;;;;18.80;67.14;101407.16;4824971;29;20458;-56
2022/08/06 05:53:59;;;;;;;4.15;1.10;;;;;;;18.87;67.22;101403.19;4828012;29;20065;-56
2022/08/06 05:56:30;;;;;;;1.20;1.10;;;;;;;18.92;67.24;101402.44;4826319;29;20034;-56
2022/08/06 05:59:01;;;;;;;1.52;1.05;;;;;;;18.78;68.02;101401.16;4827591;29;20399;-56
2022/08/06 06:01:30;;;;;;;4.45;1.60;;;;;;;18.81;67.66;101398.75;4827976;29;20050;-56
2022/08/06 06:03:57;;;;;;;2.13;1.02;;;;;;;18.65;68.30;101405.78;4833713;29;20042;-55
2022/08/06 06:06:25;;;;;;;1.92;0.80;;;;;;;18.71;67.24;101413.00;4827429;29;20026;-56
2022/08/06 06:08:51;;;;;;;1.65;0.88;;;;;;;18.70;67.23;101399.66;4824058;29;20480;-56
2022/08/06 06:11:18;;;;;;;3.13;1.33;;;;;;;18.70;67.31;101411.31;4822835;29;20539;-56
2022/08/06 06:13:46;;;;;;;2.25;1.08;;;;;;;18.77;67.12;101403.06;4823578;29;20102;-56
2022/08/06 06:16:18;;;;;;;2.55;0.93;;;;;;;18.77;66.97;101415.75;4823807;29;20483;-56
2022/08/06 06:19:05;;;;;;;1.25;0.80;;;;;;;18.58;67.37;101410.56;4824731;29;20081;-56
2022/08/06 06:21:54;;;;;;;3.92;0.80;;;;;;;18.65;67.14;101413.91;4827448;29;20114;-56
2022/08/06 06:24:37;;;;;;;1.98;0.73;;;;;;;18.78;66.51;101412.81;4824060;29;20053;-56
2022/08/06 06:27:18;;;;;;;2.75;1.00;;;;;;;18.64;67.26;101423.13;4825193;29;20113;-56
2022/08/06 06:30:04;;;;;;;7.95;1.30;;;;;;;18.68;66.89;101423.50;4822343;29;20495;-56
2022/08/06 06:32:48;;;;;;;1.15;0.77;;;;;;;18.80;65.87;101418.81;4806464;29;20043;-56
2022/08/06 06:35:34;;;;;;;1.75;0.70;;;;;;;18.64;66.43;101416.88;4822104;29;20042;-56
2022/08/06 06:38:18;;;;;;;0.80;0.80;;;;;;;18.79;66.13;101424.50;4820558;29;20030;-56
2022/08/06 06:41:21;;;;;;;2.20;0.90;;;;;;;18.63;66.82;101435.06;4823923;29;20526;-56
2022/08/06 06:44:04;;;;;;;2.05;0.93;;;;;;;18.64;66.56;101428.56;4824175;29;20046;-56
2022/08/06 06:46:56;;;;;;;1.38;0.90;;;;;;;18.75;66.52;101431.47;4823572;29;20042;-56
2022/08/06 06:49:46;;;;;;;1.52;0.75;;;;;;;18.69;66.63;101422.44;4791941;29;20283;-56
2022/08/06 06:52:30;;;;;;;0.88;0.75;;;;;;;18.59;67.06;101425.75;4823018;29;20046;-56
2022/08/06 06:55:08;;;;;;;2.28;0.95;;;;;;;18.48;67.67;101424.75;4840243;29;20091;-56
2022/08/06 06:57:38;;;;;;;1.17;0.60;;;;;;;18.54;67.36;101428.38;4823399;29;20050;-56
2022/08/06 07:00:06;;;;;;;1.60;0.90;;;;;;;18.47;67.46;101427.72;4824725;29;20484;-56
2022/08/06 07:02:39;;;;;;;2.55;1.20;;;;;;;18.55;67.52;101429.22;4822523;29;20069;-56
2022/08/06 07:05:07;;;;;;;1.80;0.90;;;;;;;18.52;67.88;101438.66;4823548;29;20488;-55
2022/08/06 07:07:37;;;;;;;2.55;0.80;;;;;;;18.53;67.93;101434.88;4823398;29;20129;-56
2022/08/06 07:10:08;;;;;;;1.08;0.88;;;;;;;18.41;68.57;101439.53;4822187;29;20070;-56
2022/08/06 07:12:35;;;;;;;5.57;0.90;;;;;;;18.36;68.50;101442.16;4823754;29;20034;-56
2022/08/06 07:15:04;;;;;;;1.15;0.65;;;;;;;18.28;69.12;101435.25;4822878;29;20114;-56
2022/08/06 07:17:34;;;;;;;1.58;0.77;;;;;;;18.36;68.48;101432.13;4823188;29;20117;-56
2022/08/06 07:20:05;;;;;;;0.73;0.50;;;;;;;18.45;67.78;101443.41;4823443;29;20026;-55
2022/08/06 07:22:33;;;;;;;1.25;0.80;;;;;;;18.38;68.24;101435.44;4821899;29;20038;-55
2022/08/06 07:25:02;;;;;;;0.93;0.50;;;;;;;18.31;68.14;101442.06;4823951;29;20114;-55
2022/08/06 07:27:38;;;;;;;0.85;0.50;;;;;;;18.24;68.80;101441.38;4822761;29;20070;-56
2022/08/06 07:30:05;;;;;;;1.05;0.70;;;;;;;18.28;68.39;101456.09;4820719;29;20035;-56
2022/08/06 07:32:33;;;;;;;3.40;0.75;;;;;;;18.28;68.03;101450.69;4822754;29;20042;-56
2022/08/06 07:35:07;;;;;;;2.13;0.85;;;;;;;18.44;67.22;101447.19;4822951;29;20042;-56
2022/08/06 07:37:35;;;;;;;1.17;0.52;;;;;;;18.39;66.85;101441.69;4809319;29;20100;-56
2022/08/06 07:40:06;;;;;;;3.13;0.85;;;;;;;18.39;66.81;101442.50;4822552;29;20045;-56
2022/08/06 07:42:33;;;;;;;1.48;0.80;;;;;;;18.35;67.03;101437.81;4822519;29;20038;-56
2022/08/06 07:45:03;;;;;;;1.80;1.02;;;;;;;18.38;66.97;101435.44;4821715;29;20406;-56
2022/08/06 07:47:40;;;;;;;1.27;0.77;;;;;;;18.38;67.14;101430.00;4823577;29;20053;-56
2022/08/06 07:50:10;;;;;;;2.08;0.90;;;;;;;18.28;66.98;101439.84;4822888;29;20042;-56
2022/08/06 07:52:39;;;;;;;2.50;1.20;;;;;;;18.42;66.82;101433.03;4822642;29;20030;-56
2022/08/06 07:55:10;;;;;;;0.82;0.60;;;;;;;18.35;66.82;101437.81;4823495;29;20037;-56
2022/08/06 07:57:37;;;;;;;1.83;1.10;;;;;;;18.38;67.18;101429.19;4822470;29;20037;-56
2022/08/06 08:00:05;;;;;;;2.85;0.90;;;;;;;18.51;66.31;101438.91;4821264;29;20056;-56
2022/08/06 08:02:32;;;;;;;0.43;0.43;;;;;;;18.20;67.46;101432.91;4828777;29;20042;-55
2022/08/06 08:07:45;;;;;;;1.05;0.50;;;;;;;18.30;67.03;101424.16;4822949;29;20068;-56
2022/08/06 08:10:12;;;;;;;0.95;0.75;;;;;;;18.28;67.04;101423.59;4820641;29;20034;-56
2022/08/06 08:12:42;;;;;;;3.38;1.20;;;;;;;18.23;67.41;101415.34;4822191;29;20472;-56
2022/08/06 08:15:09;;;;;;;3.05;0.98;;;;;;;18.25;67.69;101415.94;4822332;29;20041;-56
2022/08/06 08:17:35;;;;;;;1.33;0.77;;;;;;;18.48;67.52;101413.91;4821123;29;20691;-55
2022/08/06 08:20:04;;;;;;;1.02;0.70;;;;;;;18.41;67.59;101412.44;4840649;29;20094;-55
2022/08/06 08:22:31;;;;;;;2.38;0.80;;;;;;;18.47;67.20;101416.88;4821455;29;20121;-56
2022/08/06 08:24:57;;;;;;;1.50;0.90;;;;;;;18.51;67.25;101418.03;4822991;29;20027;-56
2022/08/06 08:27:23;;;;;;;3.00;0.88;;;;;;;18.53;67.62;101417.78;4822304;29;20038;-56
2022/08/06 08:29:50;;;;;;;1.90;0.70;;;;;;;18.44;68.06;101414.66;4822051;29;20388;-56
2022/08/06 08:32:16;;;;;;;2.25;0.70;;;;;;;18.38;68.13;101413.75;4821213;29;20034;-56
2022/08/06 08:34:44;;;;;;;2.53;0.88;;;;;;;18.56;67.88;101415.41;4822267;29;20034;-56
2022/08/06 08:37:10;;;;;;;3.10;1.15;;;;;;;18.49;67.84;101412.03;4811450;29;20107;-56
2022/08/06 08:39:36;;;;;;;1.75;0.95;;;;;;;18.55;68.11;101419.19;4804015;29;20031;-56
2022/08/06 08:42:13;;;;;;;1.40;0.80;;;;;;;18.48;68.32;101413.91;4820026;29;20496;-56
2022/08/06 08:44:41;;;;;;;1.10;0.55;;;;;;;18.51;68.47;101422.63;4822257;29;20065;-56
2022/08/06 08:47:09;;;;;;;3.63;0.73;;;;;;;18.46;68.28;101404.38;4821964;29;20124;-55
2022/08/06 08:49:40;;;;;;;2.10;1.02;;;;;;;18.50;67.81;101408.25;4822119;29;20049;-56
2022/08/06 08:52:15;;;;;;;1.25;0.70;;;;;;;18.53;67.99;101413.19;4823284;29;20030;-56
2022/08/06 08:54:45;;;;;;;1.48;0.68;;;;;;;18.41;68.39;101409.72;4821588;29;20026;-56
2022/08/06 08:57:13;;;;;;;0.77;0.50;;;;;;;18.48;68.09;101413.09;4833028;24;20145;-56
2022/08/06 08:59:41;;;;;;;0.77;0.52;;;;;;;18.50;67.86;101413.69;4839989;29;20551;-56
2022/08/06 09:02:12;;;;;;;3.10;0.73;;;;;;;18.63;67.31;101416.06;4838224;29;20045;-56
2022/08/06 09:04:39;;;;;;;1.30;0.57;;;;;;;18.67;67.20;101411.00;4839848;29;20492;-56
2022/08/06 09:07:07;;;;;;;2.08;0.50;;;;;;;18.54;67.71;101417.53;4840866;29;20124;-56
2022/08/06 09:09:37;;;;;;;1.42;0.60;;;;;;;18.52;67.95;101408.81;4839746;29;20038;-56
2022/08/06 09:12:05;;;;;;;0.50;0.50;;;;;;;18.55;67.44;101408.34;4835549;29;20058;-56
2022/08/06 09:14:31;;;;;;;0.50;0.50;;;;;;;18.64;67.16;101409.56;4834458;29;20112;-55
2022/08/06 09:16:59;;;;;;;1.13;0.55;;;;;;;18.43;67.49;101404.88;4820698;29;20038;-55
2022/08/06 09:19:28;;;;;;;2.50;0.68;;;;;;;18.62;66.99;101408.19;4821896;29;20034;-56
2022/08/06 09:21:58;;;;;;;1.13;0.50;;;;;;;18.38;67.70;101413.75;4820632;29;20369;-57
2022/08/06 09:24:26;;;;;;;2.47;0.70;;;;;;;18.26;68.44;101410.25;4821764;29;20046;-56
2022/08/06 09:27:11;;;;;;;1.02;0.65;;;;;;;18.32;68.36;101408.47;4821389;29;20499;-56
2022/08/06 09:29:48;;;;;;;0.90;0.65;;;;;;;18.37;68.21;101406.66;4822500;29;20038;-56
2022/08/06 09:32:38;;;;;;;1.52;0.60;;;;;;;18.30;68.27;101402.47;4819250;29;20511;-56
2022/08/06 09:35:22;;;;;;;1.70;0.60;;;;;;;18.28;68.27;101410.84;4817894;29;20031;-56
2022/08/06 09:37:50;;;;;;;0.80;0.55;;;;;;;18.30;67.96;101410.59;4822208;29;20408;-56
2022/08/06 09:40:20;;;;;;;1.20;0.57;;;;;;;18.36;67.79;101406.91;4821311;29;20034;-56
2022/08/06 09:42:48;;;;;;;1.83;0.45;;;;;;;18.20;68.66;101394.97;4821154;29;20121;-56
2022/08/06 09:45:16;;;;;;;0.75;0.60;;;;;;;18.17;69.11;101407.13;4824520;29;20407;-55
2022/08/06 09:47:42;;;;;;;0.77;0.60;;;;;;;18.37;67.89;101414.78;4807404;29;20385;-56
2022/08/06 09:50:09;;;;;;;1.05;0.60;;;;;;;18.36;68.08;101412.34;4818733;29;20541;-56
2022/08/06 09:52:35;;;;;;;1.95;0.60;;;;;;;18.45;67.58;101405.47;4824778;29;20027;-56
2022/08/06 09:55:02;;;;;;;0.93;0.60;;;;;;;18.40;67.66;101417.03;4825691;29;20377;-56
2022/08/06 09:57:45;;;;;;;0.98;0.60;;;;;;;18.35;67.87;101413.41;4824381;29;20101;-56
2022/08/06 10:00:28;;;;;;;0.80;0.70;;;;;;;18.31;68.17;101412.25;4824394;29;20049;-56
2022/08/06 10:03:05;;;;;;;2.35;0.70;;;;;;;18.22;68.44;101408.31;4820313;29;20030;-56
2022/08/06 10:05:32;;;;;;;1.70;0.90;;;;;;;18.23;68.67;101415.34;4807263;29;20520;-56
2022/08/06 10:08:05;;;;;;;1.65;0.70;;;;;;;18.31;68.42;101404.13;4822435;29;20042;-55
2022/08/06 10:10:52;;;;;;;4.00;0.57;;;;;;;18.13;68.54;101407.84;4824236;29;20050;-55
2022/08/06 10:13:24;;;;;;;1.05;0.65;;;;;;;18.25;68.46;101413.22;4825076;29;20488;-56
2022/08/06 10:15:53;;;;;;;0.95;0.60;;;;;;;18.25;67.86;101418.63;4824203;29;20070;-56
2022/08/06 10:18:42;;;;;;;2.13;0.73;;;;;;;18.34;67.80;101412.59;4823133;29;20066;-56
2022/08/06 10:21:14;;;;;;;1.05;0.77;;;;;;;18.35;67.64;101411.53;4823793;29;20030;-56
2022/08/06 10:23:43;;;;;;;2.65;0.65;;;;;;;18.26;68.43;101407.53;4824488;29;20110;-56
2022/08/06 10:26:12;;;;;;;2.60;0.98;;;;;;;18.25;68.58;101419.47;4823865;29;20523;-56
2022/08/06 10:28:41;;;;;;;6.28;1.00;;;;;;;18.26;68.56;101423.81;4806944;29;20031;-56
2022/08/06 10:31:10;;;;;;;5.03;1.30;;;;;;;18.31;68.01;101425.78;4820963;29;20037;-56
2022/08/06 10:33:51;;;;;;;1.70;0.77;;;;;;;18.20;68.62;101428.31;4824064;29;20042;-56
2022/08/06 10:36:22;;;;;;;3.25;1.00;;;;;;;18.36;68.14;101425.88;4817979;29;20121;-56
2022/08/06 10:38:52;;;;;;;1.33;0.75;;;;;;;18.34;68.34;101422.59;4823549;29;20472;-56
2022/08/06 10:41:19;;;;;;;1.38;0.93;;;;;;;18.44;67.83;101425.50;4822783;29;20039;-56
2022/08/06 10:43:45;;;;;;;5.05;1.05;;;;;;;18.40;67.79;101427.06;4823962;29;20088;-56
2022/08/06 10:46:15;;;;;;;2.00;0.98;;;;;;;18.40;67.80;101422.44;4824572;29;20506;-56
2022/08/06 10:48:44;;;;;;;0.95;0.77;;;;;;;18.55;67.04;101421.91;4824165;29;20171;-56
2022/08/06 10:51:11;;;;;;;3.88;1.17;;;;;;;18.48;67.48;101424.75;4823345;29;20034;-56
2022/08/06 10:53:41;;;;;;;2.10;0.80;;;;;;;18.26;68.04;101425.69;4823476;29;20086;-56
2022/08/06 10:56:09;;;;;;;2.67;1.00;;;;;;;18.36;67.39;101423.19;4823206;29;20042;-56
2022/08/06 10:58:37;;;;;;;2.45;0.90;;;;;;;18.48;67.03;101421.22;4822782;29;20049;-56
2022/08/06 11:01:09;;;;;;;1.23;0.77;;;;;;;18.48;67.19;101419.31;4823163;29;20106;-56
2022/08/06 11:03:44;;;;;;;1.92;0.95;;;;;;;18.46;67.04;101424.19;4823404;29;20103;-56
2022/08/06 11:06:28;;;;;;;;;;;;;;;18.46;67.19;101426.91;4823906;29;20107;-56
2022/08/06 11:09:20;;;;;;;1.70;1.00;;;;;;;18.42;66.77;101427.63;4821756;29;19963;-56
2022/08/06 11:12:07;;;;;;;2.13;0.93;;;;;;;18.48;67.33;101424.75;4822893;29;20400;-56
2022/08/06 11:14:36;;;;;;;5.68;1.15;;;;;;;18.36;68.48;101420.47;4823578;29;20042;-56
2022/08/06 11:17:02;;;;;;;2.65;0.90;;;;;;;18.37;68.80;101422.09;4822874;29;20034;-56
2022/08/06 11:19:44;;;;;;;1.60;0.70;;;;;;;18.37;68.70;101420.22;4823067;29;20030;-56
2022/08/06 11:22:36;;;;;;;3.95;1.02;;;;;;;18.31;69.40;101423.09;4823682;29;20043;-56
2022/08/06 11:25:06;;;;;;;1.63;0.90;;;;;;;18.24;69.53;101417.81;4823093;29;20392;-56
2022/08/06 11:27:51;;;;;;;2.45;0.80;;;;;;;18.20;69.98;101414.75;4822635;29;20038;-56
2022/08/06 11:30:19;;;;;;;2.20;0.90;;;;;;;18.31;69.53;101413.06;4823307;29;20083;-55
2022/08/06 11:32:48;;;;;;;2.60;0.75;;;;;;;18.38;69.28;101418.34;4822086;29;20038;-56
2022/08/06 11:35:33;;;;;;;3.85;1.25;;;;;;;18.32;69.66;101417.44;4812019;29;20034;-55
2022/08/06 11:38:05;;;;;;;1.50;0.73;;;;;;;18.00;70.84;101417.09;4821957;29;20113;-55
2022/08/06 11:40:57;;;;;;;1.30;0.82;;;;;;;18.00;70.71;101421.69;4821451;29;20042;-56
2022/08/06 11:44:04;;;;;;;4.82;0.80;;;;;;;18.07;71.07;101415.06;4823302;29;20070;-56
2022/08/06 11:46:37;;;;;;;2.40;0.73;;;;;;;17.99;70.99;101423.59;4823956;29;20038;-56